sensor_id;sensor_type;location;lat;lon;timestamp;temperature;humidity
71668;DHT22;59504;54.806;9.640;2022-10-15T00:00:40;13.00;81.20
71668;DHT22;59504;54.806;9.640;2022-10-15T00:02:41;13.10;81.20
71668;DHT22;59504;54.806;9.640;2022-10-15T00:04:41;13.10;81.30
71668;DHT22;59504;54.806;9.640;2022-10-15T00:06:42;13.00;81.10
71668;DHT22;59504;54.806;9.640;2022-10-15T00:08:46;13.10;81.20
71668;DHT22;59504;54.806;9.640;2022-10-15T00:10:46;13.00;81.20
71668;DHT22;59504;54.806;9.640;2022-10-15T00:12:47;13.10;81.30
71668;DHT22;59504;54.806;9.640;2022-10-15T00:14:48;13.10;81.30
71668;DHT22;59504;54.806;9.640;2022-10-15T00:16:49;13.10;81.30
71668;DHT22;59504;54.806;9.640;2022-10-15T00:18:50;13.20;81.40
71668;DHT22;59504;54.806;9.640;2022-10-15T00:20:52;13.20;81.50
71668;DHT22;59504;54.806;9.640;2022-10-15T00:22:52;13.20;81.40
71668;DHT22;59504;54.806;9.640;2022-10-15T00:24:53;13.10;81.40
71668;DHT22;59504;54.806;9.640;2022-10-15T00:26:53;13.10;81.40
71668;DHT22;59504;54.806;9.640;2022-10-15T00:28:57;13.10;81.40
71668;DHT22;59504;54.806;9.640;2022-10-15T00:31:03;13.20;81.50
71668;DHT22;59504;54.806;9.640;2022-10-15T00:33:04;13.10;81.40
71668;DHT22;59504;54.806;9.640;2022-10-15T00:35:05;13.30;81.60
71668;DHT22;59504;54.806;9.640;2022-10-15T00:37:07;13.20;81.50
71668;DHT22;59504;54.806;9.640;2022-10-15T00:39:07;13.30;81.60
71668;DHT22;59504;54.806;9.640;2022-10-15T00:41:14;13.20;81.50
71668;DHT22;59504;54.806;9.640;2022-10-15T00:43:15;13.30;81.60
71668;DHT22;59504;54.806;9.640;2022-10-15T00:45:15;13.20;81.60
71668;DHT22;59504;54.806;9.640;2022-10-15T00:47:22;13.30;81.60
71668;DHT22;59504;54.806;9.640;2022-10-15T00:49:30;13.40;81.70
71668;DHT22;59504;54.806;9.640;2022-10-15T00:51:39;13.20;81.50
71668;DHT22;59504;54.806;9.640;2022-10-15T00:53:41;13.40;81.60
71668;DHT22;59504;54.806;9.640;2022-10-15T00:55:42;13.30;81.70
71668;DHT22;59504;54.806;9.640;2022-10-15T00:57:44;13.30;81.60
71668;DHT22;59504;54.806;9.640;2022-10-15T00:59:50;13.30;81.60
71668;DHT22;59504;54.806;9.640;2022-10-15T01:01:53;13.30;81.70
71668;DHT22;59504;54.806;9.640;2022-10-15T01:03:54;13.40;81.70
71668;DHT22;59504;54.806;9.640;2022-10-15T01:05:55;13.40;81.80
71668;DHT22;59504;54.806;9.640;2022-10-15T01:07:56;13.30;81.80
71668;DHT22;59504;54.806;9.640;2022-10-15T01:09:57;13.40;81.90
71668;DHT22;59504;54.806;9.640;2022-10-15T01:11:57;13.40;81.90
71668;DHT22;59504;54.806;9.640;2022-10-15T01:16:24;13.30;81.90
71668;DHT22;59504;54.806;9.640;2022-10-15T01:21:15;13.40;82.10
71668;DHT22;59504;54.806;9.640;2022-10-15T01:28:59;13.40;82.00
71668;DHT22;59504;54.806;9.640;2022-10-15T01:31:15;13.40;82.20
71668;DHT22;59504;54.806;9.640;2022-10-15T01:33:41;13.30;81.90
71668;DHT22;59504;54.806;9.640;2022-10-15T01:38:04;13.40;82.70
71668;DHT22;59504;54.806;9.640;2022-10-15T01:42:34;13.40;82.00
71668;DHT22;59504;54.806;9.640;2022-10-15T01:44:48;13.50;82.20
71668;DHT22;59504;54.806;9.640;2022-10-15T01:47:02;13.40;82.10
71668;DHT22;59504;54.806;9.640;2022-10-15T01:49:04;13.40;82.10
71668;DHT22;59504;54.806;9.640;2022-10-15T01:51:07;13.50;82.00
71668;DHT22;59504;54.806;9.640;2022-10-15T01:53:12;13.50;82.10
71668;DHT22;59504;54.806;9.640;2022-10-15T01:55:16;13.50;82.10
71668;DHT22;59504;54.806;9.640;2022-10-15T01:57:19;13.40;82.00
71668;DHT22;59504;54.806;9.640;2022-10-15T01:59:23;13.50;82.10
71668;DHT22;59504;54.806;9.640;2022-10-15T02:01:25;13.40;82.10
71668;DHT22;59504;54.806;9.640;2022-10-15T02:03:25;13.50;82.20
71668;DHT22;59504;54.806;9.640;2022-10-15T02:05:31;13.50;82.10
71668;DHT22;59504;54.806;9.640;2022-10-15T02:12:17;13.40;82.10
71668;DHT22;59504;54.806;9.640;2022-10-15T02:14:30;13.40;82.00
71668;DHT22;59504;54.806;9.640;2022-10-15T02:16:44;13.40;82.10
71668;DHT22;59504;54.806;9.640;2022-10-15T02:19:10;13.50;82.20
71668;DHT22;59504;54.806;9.640;2022-10-15T02:21:35;13.40;82.20
71668;DHT22;59504;54.806;9.640;2022-10-15T02:24:10;13.40;82.20
71668;DHT22;59504;54.806;9.640;2022-10-15T02:26:13;13.40;82.30
71668;DHT22;59504;54.806;9.640;2022-10-15T02:28:17;13.40;82.00
71668;DHT22;59504;54.806;9.640;2022-10-15T02:30:18;13.40;82.10
71668;DHT22;59504;54.806;9.640;2022-10-15T02:32:21;13.40;82.20
71668;DHT22;59504;54.806;9.640;2022-10-15T02:34:25;13.40;82.20
71668;DHT22;59504;54.806;9.640;2022-10-15T02:36:27;13.40;82.30
71668;DHT22;59504;54.806;9.640;2022-10-15T02:38:29;13.40;82.20
71668;DHT22;59504;54.806;9.640;2022-10-15T02:40:33;13.50;82.30
71668;DHT22;59504;54.806;9.640;2022-10-15T02:42:35;13.50;82.30
71668;DHT22;59504;54.806;9.640;2022-10-15T02:44:36;13.40;82.30
71668;DHT22;59504;54.806;9.640;2022-10-15T02:46:37;13.40;82.30
71668;DHT22;59504;54.806;9.640;2022-10-15T02:48:38;13.50;82.50
71668;DHT22;59504;54.806;9.640;2022-10-15T02:50:38;13.50;82.30
71668;DHT22;59504;54.806;9.640;2022-10-15T02:52:39;13.50;82.40
71668;DHT22;59504;54.806;9.640;2022-10-15T02:54:40;13.50;82.40
71668;DHT22;59504;54.806;9.640;2022-10-15T02:56:41;13.40;82.30
71668;DHT22;59504;54.806;9.640;2022-10-15T02:58:41;13.50;82.30
71668;DHT22;59504;54.806;9.640;2022-10-15T03:00:42;13.40;82.30
71668;DHT22;59504;54.806;9.640;2022-10-15T03:02:43;13.40;82.30
71668;DHT22;59504;54.806;9.640;2022-10-15T03:04:44;13.50;82.50
71668;DHT22;59504;54.806;9.640;2022-10-15T03:06:45;13.40;82.30
71668;DHT22;59504;54.806;9.640;2022-10-15T03:08:46;13.30;82.10
71668;DHT22;59504;54.806;9.640;2022-10-15T03:10:46;13.50;82.40
71668;DHT22;59504;54.806;9.640;2022-10-15T03:12:47;13.50;82.40
71668;DHT22;59504;54.806;9.640;2022-10-15T03:14:48;13.50;82.30
71668;DHT22;59504;54.806;9.640;2022-10-15T03:16:49;13.50;82.40
71668;DHT22;59504;54.806;9.640;2022-10-15T03:18:50;13.50;82.30
71668;DHT22;59504;54.806;9.640;2022-10-15T03:20:54;13.40;82.20
71668;DHT22;59504;54.806;9.640;2022-10-15T03:22:55;13.50;82.20
71668;DHT22;59504;54.806;9.640;2022-10-15T03:24:56;13.40;82.10
71668;DHT22;59504;54.806;9.640;2022-10-15T03:26:57;13.40;82.00
71668;DHT22;59504;54.806;9.640;2022-10-15T03:28:57;13.40;81.90
71668;DHT22;59504;54.806;9.640;2022-10-15T03:30:58;13.40;81.90
71668;DHT22;59504;54.806;9.640;2022-10-15T03:32:59;13.50;81.80
71668;DHT22;59504;54.806;9.640;2022-10-15T03:35:00;13.40;81.80
71668;DHT22;59504;54.806;9.640;2022-10-15T03:37:00;13.30;81.70
71668;DHT22;59504;54.806;9.640;2022-10-15T03:39:01;13.50;81.90
71668;DHT22;59504;54.806;9.640;2022-10-15T03:41:02;13.30;81.70
71668;DHT22;59504;54.806;9.640;2022-10-15T03:43:03;13.30;81.70
71668;DHT22;59504;54.806;9.640;2022-10-15T03:45:04;13.40;81.80
71668;DHT22;59504;54.806;9.640;2022-10-15T03:47:04;13.30;81.80
71668;DHT22;59504;54.806;9.640;2022-10-15T03:49:05;13.40;81.80
71668;DHT22;59504;54.806;9.640;2022-10-15T03:51:06;13.30;81.80
71668;DHT22;59504;54.806;9.640;2022-10-15T03:53:08;13.30;81.70
71668;DHT22;59504;54.806;9.640;2022-10-15T03:55:09;13.30;81.80
71668;DHT22;59504;54.806;9.640;2022-10-15T03:57:10;13.30;81.70
71668;DHT22;59504;54.806;9.640;2022-10-15T03:59:11;13.40;81.80
71668;DHT22;59504;54.806;9.640;2022-10-15T04:01:14;13.30;81.70
71668;DHT22;59504;54.806;9.640;2022-10-15T04:03:15;13.30;81.60
71668;DHT22;59504;54.806;9.640;2022-10-15T04:05:16;13.30;81.60
71668;DHT22;59504;54.806;9.640;2022-10-15T04:07:17;13.30;81.60
71668;DHT22;59504;54.806;9.640;2022-10-15T04:09:18;13.30;81.50
71668;DHT22;59504;54.806;9.640;2022-10-15T04:11:19;13.20;81.30
71668;DHT22;59504;54.806;9.640;2022-10-15T04:13:40;13.30;81.20
71668;DHT22;59504;54.806;9.640;2022-10-15T04:16:03;13.30;81.20
71668;DHT22;59504;54.806;9.640;2022-10-15T04:18:24;13.20;81.00
71668;DHT22;59504;54.806;9.640;2022-10-15T04:20:45;13.20;80.90
71668;DHT22;59504;54.806;9.640;2022-10-15T04:23:05;13.20;80.90
71668;DHT22;59504;54.806;9.640;2022-10-15T04:25:26;13.20;80.90
71668;DHT22;59504;54.806;9.640;2022-10-15T04:27:47;13.20;80.90
71668;DHT22;59504;54.806;9.640;2022-10-15T04:30:08;13.10;80.80
71668;DHT22;59504;54.806;9.640;2022-10-15T04:32:29;13.00;80.70
71668;DHT22;59504;54.806;9.640;2022-10-15T04:34:49;13.00;80.70
71668;DHT22;59504;54.806;9.640;2022-10-15T04:37:10;13.00;80.80
71668;DHT22;59504;54.806;9.640;2022-10-15T04:39:31;13.00;80.80
71668;DHT22;59504;54.806;9.640;2022-10-15T04:41:51;13.00;80.80
71668;DHT22;59504;54.806;9.640;2022-10-15T04:44:12;13.00;80.80
71668;DHT22;59504;54.806;9.640;2022-10-15T04:46:36;12.90;80.80
71668;DHT22;59504;54.806;9.640;2022-10-15T04:48:56;12.90;80.70
71668;DHT22;59504;54.806;9.640;2022-10-15T04:51:19;12.90;80.60
71668;DHT22;59504;54.806;9.640;2022-10-15T04:53:40;12.90;80.50
71668;DHT22;59504;54.806;9.640;2022-10-15T04:56:04;12.80;80.40
71668;DHT22;59504;54.806;9.640;2022-10-15T04:58:25;12.80;80.40
71668;DHT22;59504;54.806;9.640;2022-10-15T05:00:45;12.80;80.50
71668;DHT22;59504;54.806;9.640;2022-10-15T05:03:06;12.70;80.30
71668;DHT22;59504;54.806;9.640;2022-10-15T05:05:27;12.80;80.40
71668;DHT22;59504;54.806;9.640;2022-10-15T05:07:50;12.60;80.20
71668;DHT22;59504;54.806;9.640;2022-10-15T05:10:11;12.70;80.30
71668;DHT22;59504;54.806;9.640;2022-10-15T05:12:31;12.60;80.20
71668;DHT22;59504;54.806;9.640;2022-10-15T05:14:52;12.60;80.10
71668;DHT22;59504;54.806;9.640;2022-10-15T05:17:13;12.60;80.20
71668;DHT22;59504;54.806;9.640;2022-10-15T05:19:33;12.50;80.10
71668;DHT22;59504;54.806;9.640;2022-10-15T05:21:54;12.50;80.10
71668;DHT22;59504;54.806;9.640;2022-10-15T05:24:14;12.50;80.20
71668;DHT22;59504;54.806;9.640;2022-10-15T05:26:35;12.40;80.30
71668;DHT22;59504;54.806;9.640;2022-10-15T05:28:57;12.50;80.40
71668;DHT22;59504;54.806;9.640;2022-10-15T05:31:20;12.30;80.30
71668;DHT22;59504;54.806;9.640;2022-10-15T05:33:41;12.40;80.50
71668;DHT22;59504;54.806;9.640;2022-10-15T05:36:16;12.40;80.60
71668;DHT22;59504;54.806;9.640;2022-10-15T05:38:37;12.30;80.70
71668;DHT22;59504;54.806;9.640;2022-10-15T05:40:58;12.40;80.80
71668;DHT22;59504;54.806;9.640;2022-10-15T05:43:17;12.40;80.90
71668;DHT22;59504;54.806;9.640;2022-10-15T05:45:36;12.40;81.00
71668;DHT22;59504;54.806;9.640;2022-10-15T05:47:55;12.20;80.90
71668;DHT22;59504;54.806;9.640;2022-10-15T05:50:15;12.30;81.00
71668;DHT22;59504;54.806;9.640;2022-10-15T05:52:34;12.20;80.90
71668;DHT22;59504;54.806;9.640;2022-10-15T05:54:53;12.30;81.10
71668;DHT22;59504;54.806;9.640;2022-10-15T05:57:12;12.30;81.20
71668;DHT22;59504;54.806;9.640;2022-10-15T05:59:32;12.20;81.30
71668;DHT22;59504;54.806;9.640;2022-10-15T06:01:51;12.30;81.40
71668;DHT22;59504;54.806;9.640;2022-10-15T06:04:12;12.20;81.60
71668;DHT22;59504;54.806;9.640;2022-10-15T06:06:32;12.20;81.60
71668;DHT22;59504;54.806;9.640;2022-10-15T06:08:52;12.30;81.70
71668;DHT22;59504;54.806;9.640;2022-10-15T06:11:11;12.20;81.60
71668;DHT22;59504;54.806;9.640;2022-10-15T06:13:30;12.20;81.70
71668;DHT22;59504;54.806;9.640;2022-10-15T06:15:49;12.30;81.90
71668;DHT22;59504;54.806;9.640;2022-10-15T06:18:10;12.20;81.90
71668;DHT22;59504;54.806;9.640;2022-10-15T06:20:30;12.30;81.90
71668;DHT22;59504;54.806;9.640;2022-10-15T06:22:49;12.20;82.10
71668;DHT22;59504;54.806;9.640;2022-10-15T06:25:09;12.30;82.10
71668;DHT22;59504;54.806;9.640;2022-10-15T06:27:28;12.20;82.10
71668;DHT22;59504;54.806;9.640;2022-10-15T06:29:48;12.30;82.30
71668;DHT22;59504;54.806;9.640;2022-10-15T06:32:08;12.40;82.40
71668;DHT22;59504;54.806;9.640;2022-10-15T06:34:28;12.40;82.40
71668;DHT22;59504;54.806;9.640;2022-10-15T06:36:50;12.40;82.60
71668;DHT22;59504;54.806;9.640;2022-10-15T06:39:10;12.40;82.60
71668;DHT22;59504;54.806;9.640;2022-10-15T06:41:29;12.50;82.70
71668;DHT22;59504;54.806;9.640;2022-10-15T06:43:48;12.40;82.80
71668;DHT22;59504;54.806;9.640;2022-10-15T06:46:09;12.50;82.90
71668;DHT22;59504;54.806;9.640;2022-10-15T06:48:29;12.50;82.80
71668;DHT22;59504;54.806;9.640;2022-10-15T06:50:48;12.40;82.80
71668;DHT22;59504;54.806;9.640;2022-10-15T06:53:07;12.40;82.80
71668;DHT22;59504;54.806;9.640;2022-10-15T06:55:26;12.50;82.90
71668;DHT22;59504;54.806;9.640;2022-10-15T06:57:48;12.50;82.90
71668;DHT22;59504;54.806;9.640;2022-10-15T07:00:08;12.50;82.90
71668;DHT22;59504;54.806;9.640;2022-10-15T07:02:27;12.50;82.80
71668;DHT22;59504;54.806;9.640;2022-10-15T07:04:46;12.60;83.00
71668;DHT22;59504;54.806;9.640;2022-10-15T07:07:06;12.60;83.00
71668;DHT22;59504;54.806;9.640;2022-10-15T07:09:25;12.60;83.00
71668;DHT22;59504;54.806;9.640;2022-10-15T07:11:44;12.60;82.80
71668;DHT22;59504;54.806;9.640;2022-10-15T07:14:04;12.60;82.90
71668;DHT22;59504;54.806;9.640;2022-10-15T07:16:24;12.60;83.00
71668;DHT22;59504;54.806;9.640;2022-10-15T07:18:46;12.70;83.00
71668;DHT22;59504;54.806;9.640;2022-10-15T07:21:07;12.70;83.10
71668;DHT22;59504;54.806;9.640;2022-10-15T07:23:27;12.70;83.20
71668;DHT22;59504;54.806;9.640;2022-10-15T07:25:47;12.70;83.10
71668;DHT22;59504;54.806;9.640;2022-10-15T07:28:06;12.90;83.30
71668;DHT22;59504;54.806;9.640;2022-10-15T07:30:25;12.80;83.30
71668;DHT22;59504;54.806;9.640;2022-10-15T07:32:48;12.80;83.30
71668;DHT22;59504;54.806;9.640;2022-10-15T07:35:07;12.90;83.50
71668;DHT22;59504;54.806;9.640;2022-10-15T07:37:27;12.90;83.50
71668;DHT22;59504;54.806;9.640;2022-10-15T07:39:46;12.90;83.50
71668;DHT22;59504;54.806;9.640;2022-10-15T07:42:05;13.00;83.50
71668;DHT22;59504;54.806;9.640;2022-10-15T07:44:24;13.00;84.20
71668;DHT22;59504;54.806;9.640;2022-10-15T07:46:43;13.10;83.50
71668;DHT22;59504;54.806;9.640;2022-10-15T07:49:02;13.10;83.50
71668;DHT22;59504;54.806;9.640;2022-10-15T07:51:21;13.10;83.40
71668;DHT22;59504;54.806;9.640;2022-10-15T07:53:40;13.10;83.30
71668;DHT22;59504;54.806;9.640;2022-10-15T07:56:07;13.20;83.30
71668;DHT22;59504;54.806;9.640;2022-10-15T07:58:28;13.10;83.00
71668;DHT22;59504;54.806;9.640;2022-10-15T08:00:48;13.10;83.00
71668;DHT22;59504;54.806;9.640;2022-10-15T08:03:10;13.10;83.00
71668;DHT22;59504;54.806;9.640;2022-10-15T08:05:29;13.20;83.00
71668;DHT22;59504;54.806;9.640;2022-10-15T08:07:49;13.20;82.90
71668;DHT22;59504;54.806;9.640;2022-10-15T08:10:08;13.20;82.80
71668;DHT22;59504;54.806;9.640;2022-10-15T08:12:28;13.30;82.80
71668;DHT22;59504;54.806;9.640;2022-10-15T08:14:48;13.30;82.80
71668;DHT22;59504;54.806;9.640;2022-10-15T08:17:07;13.30;82.80
71668;DHT22;59504;54.806;9.640;2022-10-15T08:19:26;13.40;82.70
71668;DHT22;59504;54.806;9.640;2022-10-15T08:21:45;13.30;82.50
71668;DHT22;59504;54.806;9.640;2022-10-15T08:24:05;13.30;82.50
71668;DHT22;59504;54.806;9.640;2022-10-15T08:26:24;13.30;82.40
71668;DHT22;59504;54.806;9.640;2022-10-15T08:28:44;13.30;82.80
71668;DHT22;59504;54.806;9.640;2022-10-15T08:31:04;13.50;82.60
71668;DHT22;59504;54.806;9.640;2022-10-15T08:33:23;13.40;82.50
71668;DHT22;59504;54.806;9.640;2022-10-15T08:35:43;13.40;82.50
71668;DHT22;59504;54.806;9.640;2022-10-15T08:38:02;13.40;82.60
71668;DHT22;59504;54.806;9.640;2022-10-15T08:40:22;13.50;82.70
71668;DHT22;59504;54.806;9.640;2022-10-15T08:42:43;13.60;82.80
71668;DHT22;59504;54.806;9.640;2022-10-15T08:45:18;13.50;82.80
71668;DHT22;59504;54.806;9.640;2022-10-15T08:47:55;13.50;82.80
71668;DHT22;59504;54.806;9.640;2022-10-15T08:50:25;13.60;82.70
71668;DHT22;59504;54.806;9.640;2022-10-15T08:52:47;13.60;82.60
71668;DHT22;59504;54.806;9.640;2022-10-15T08:55:11;13.70;82.60
71668;DHT22;59504;54.806;9.640;2022-10-15T08:57:47;13.70;82.50
71668;DHT22;59504;54.806;9.640;2022-10-15T09:03:30;13.80;82.40
71668;DHT22;59504;54.806;9.640;2022-10-15T09:06:11;13.80;82.40
71668;DHT22;59504;54.806;9.640;2022-10-15T09:10:40;14.00;82.50
71668;DHT22;59504;54.806;9.640;2022-10-15T09:14:49;14.00;82.20
71668;DHT22;59504;54.806;9.640;2022-10-15T09:16:50;14.00;82.00
71668;DHT22;59504;54.806;9.640;2022-10-15T09:18:52;14.10;81.90
71668;DHT22;59504;54.806;9.640;2022-10-15T09:20:53;14.10;81.80
71668;DHT22;59504;54.806;9.640;2022-10-15T09:22:56;14.10;81.70
71668;DHT22;59504;54.806;9.640;2022-10-15T09:25:13;14.10;81.70
71668;DHT22;59504;54.806;9.640;2022-10-15T09:29:43;14.20;81.50
71668;DHT22;59504;54.806;9.640;2022-10-15T09:34:23;14.30;81.40
71668;DHT22;59504;54.806;9.640;2022-10-15T09:36:48;14.30;81.20
71668;DHT22;59504;54.806;9.640;2022-10-15T09:43:38;14.30;80.80
71668;DHT22;59504;54.806;9.640;2022-10-15T09:45:40;14.40;80.70
71668;DHT22;59504;54.806;9.640;2022-10-15T09:48:14;14.40;80.60
71668;DHT22;59504;54.806;9.640;2022-10-15T09:50:15;14.40;80.40
71668;DHT22;59504;54.806;9.640;2022-10-15T09:52:20;14.40;80.40
71668;DHT22;59504;54.806;9.640;2022-10-15T09:55:06;14.40;80.30
71668;DHT22;59504;54.806;9.640;2022-10-15T09:57:30;14.40;80.10
71668;DHT22;59504;54.806;9.640;2022-10-15T09:59:55;14.40;79.80
71668;DHT22;59504;54.806;9.640;2022-10-15T10:02:19;14.40;79.60
71668;DHT22;59504;54.806;9.640;2022-10-15T10:04:40;14.40;79.40
71668;DHT22;59504;54.806;9.640;2022-10-15T10:07:04;14.40;79.40
71668;DHT22;59504;54.806;9.640;2022-10-15T10:12:07;14.50;79.20
71668;DHT22;59504;54.806;9.640;2022-10-15T10:14:45;14.50;79.30
71668;DHT22;59504;54.806;9.640;2022-10-15T10:17:18;14.50;79.10
71668;DHT22;59504;54.806;9.640;2022-10-15T10:19:39;14.60;79.20
71668;DHT22;59504;54.806;9.640;2022-10-15T10:22:13;14.60;79.20
71668;DHT22;59504;54.806;9.640;2022-10-15T10:24:34;14.60;79.10
71668;DHT22;59504;54.806;9.640;2022-10-15T10:26:56;14.60;79.20
71668;DHT22;59504;54.806;9.640;2022-10-15T10:29:19;14.70;79.30
71668;DHT22;59504;54.806;9.640;2022-10-15T10:31:40;14.60;79.10
71668;DHT22;59504;54.806;9.640;2022-10-15T10:34:03;14.70;79.00
71668;DHT22;59504;54.806;9.640;2022-10-15T10:36:32;14.70;78.60
71668;DHT22;59504;54.806;9.640;2022-10-15T10:42:11;14.80;78.20
71668;DHT22;59504;54.806;9.640;2022-10-15T10:44:43;14.80;77.80
71668;DHT22;59504;54.806;9.640;2022-10-15T10:47:13;14.80;78.10
71668;DHT22;59504;54.806;9.640;2022-10-15T10:49:40;14.80;78.00
71668;DHT22;59504;54.806;9.640;2022-10-15T10:52:01;14.90;77.80
71668;DHT22;59504;54.806;9.640;2022-10-15T10:54:21;14.90;77.70
71668;DHT22;59504;54.806;9.640;2022-10-15T10:56:43;15.00;77.60
71668;DHT22;59504;54.806;9.640;2022-10-15T11:01:53;14.90;77.00
71668;DHT22;59504;54.806;9.640;2022-10-15T11:04:28;15.00;77.10
71668;DHT22;59504;54.806;9.640;2022-10-15T11:07:17;15.00;76.80
71668;DHT22;59504;54.806;9.640;2022-10-15T11:10:01;14.90;76.60
71668;DHT22;59504;54.806;9.640;2022-10-15T11:15:05;14.90;76.70
71668;DHT22;59504;54.806;9.640;2022-10-15T11:20:35;14.90;76.20
71668;DHT22;59504;54.806;9.640;2022-10-15T11:23:42;14.90;76.00
71668;DHT22;59504;54.806;9.640;2022-10-15T11:26:29;14.90;76.10
71668;DHT22;59504;54.806;9.640;2022-10-15T11:31:44;14.90;76.40
71668;DHT22;59504;54.806;9.640;2022-10-15T11:39:45;14.90;76.50
71668;DHT22;59504;54.806;9.640;2022-10-15T11:42:20;14.80;76.50
71668;DHT22;59504;54.806;9.640;2022-10-15T11:44:50;14.90;76.80
71668;DHT22;59504;54.806;9.640;2022-10-15T11:49:56;15.00;77.00
71668;DHT22;59504;54.806;9.640;2022-10-15T11:55:22;15.00;77.00
71668;DHT22;59504;54.806;9.640;2022-10-15T11:57:44;15.10;77.00
71668;DHT22;59504;54.806;9.640;2022-10-15T12:02:48;15.00;76.60
71668;DHT22;59504;54.806;9.640;2022-10-15T12:05:23;15.20;76.80
71668;DHT22;59504;54.806;9.640;2022-10-15T12:07:48;15.20;76.70
71668;DHT22;59504;54.806;9.640;2022-10-15T12:12:44;15.40;76.80
71668;DHT22;59504;54.806;9.640;2022-10-15T12:20:14;15.40;76.50
71668;DHT22;59504;54.806;9.640;2022-10-15T12:28:22;15.50;75.70
71668;DHT22;59504;54.806;9.640;2022-10-15T12:30:42;15.50;75.90
71668;DHT22;59504;54.806;9.640;2022-10-15T12:35:57;15.50;75.20
71668;DHT22;59504;54.806;9.640;2022-10-15T12:38:29;15.50;75.50
71668;DHT22;59504;54.806;9.640;2022-10-15T12:41:04;15.60;75.50
71668;DHT22;59504;54.806;9.640;2022-10-15T12:43:24;15.60;75.20
71668;DHT22;59504;54.806;9.640;2022-10-15T12:45:53;15.60;75.30
71668;DHT22;59504;54.806;9.640;2022-10-15T12:48:20;15.70;75.20
71668;DHT22;59504;54.806;9.640;2022-10-15T12:50:40;15.70;75.20
71668;DHT22;59504;54.806;9.640;2022-10-15T12:53:04;15.80;75.30
71668;DHT22;59504;54.806;9.640;2022-10-15T12:55:25;15.80;75.20
71668;DHT22;59504;54.806;9.640;2022-10-15T13:00:38;15.90;74.70
71668;DHT22;59504;54.806;9.640;2022-10-15T13:03:16;16.00;74.00
71668;DHT22;59504;54.806;9.640;2022-10-15T13:05:36;15.90;73.90
71668;DHT22;59504;54.806;9.640;2022-10-15T13:07:56;16.00;73.90
71668;DHT22;59504;54.806;9.640;2022-10-15T13:10:26;16.00;73.90
71668;DHT22;59504;54.806;9.640;2022-10-15T13:12:55;16.00;73.80
71668;DHT22;59504;54.806;9.640;2022-10-15T13:15:15;16.00;73.70
71668;DHT22;59504;54.806;9.640;2022-10-15T13:17:37;16.00;73.90
71668;DHT22;59504;54.806;9.640;2022-10-15T13:20:00;16.00;73.70
71668;DHT22;59504;54.806;9.640;2022-10-15T13:22:25;16.10;73.80
71668;DHT22;59504;54.806;9.640;2022-10-15T13:24:44;16.00;73.80
71668;DHT22;59504;54.806;9.640;2022-10-15T13:27:20;16.10;73.80
71668;DHT22;59504;54.806;9.640;2022-10-15T13:29:56;16.00;73.50
71668;DHT22;59504;54.806;9.640;2022-10-15T13:32:15;16.10;73.20
71668;DHT22;59504;54.806;9.640;2022-10-15T13:34:35;16.10;73.40
71668;DHT22;59504;54.806;9.640;2022-10-15T13:36:58;16.10;73.30
71668;DHT22;59504;54.806;9.640;2022-10-15T13:39:36;16.20;73.20
71668;DHT22;59504;54.806;9.640;2022-10-15T13:42:16;16.10;72.80
71668;DHT22;59504;54.806;9.640;2022-10-15T13:44:35;16.10;72.80
71668;DHT22;59504;54.806;9.640;2022-10-15T13:46:54;16.10;73.00
71668;DHT22;59504;54.806;9.640;2022-10-15T13:49:13;16.10;73.10
71668;DHT22;59504;54.806;9.640;2022-10-15T13:51:36;16.20;73.00
71668;DHT22;59504;54.806;9.640;2022-10-15T13:53:56;16.10;73.70
71668;DHT22;59504;54.806;9.640;2022-10-15T13:56:23;16.10;73.00
71668;DHT22;59504;54.806;9.640;2022-10-15T13:58:45;16.10;72.90
71668;DHT22;59504;54.806;9.640;2022-10-15T14:01:13;16.20;72.70
71668;DHT22;59504;54.806;9.640;2022-10-15T14:03:34;16.20;72.60
71668;DHT22;59504;54.806;9.640;2022-10-15T14:05:55;16.20;72.70
71668;DHT22;59504;54.806;9.640;2022-10-15T14:08:24;16.20;72.60
71668;DHT22;59504;54.806;9.640;2022-10-15T14:10:43;16.20;72.30
71668;DHT22;59504;54.806;9.640;2022-10-15T14:13:02;16.10;72.40
71668;DHT22;59504;54.806;9.640;2022-10-15T14:16:01;16.10;72.40
71668;DHT22;59504;54.806;9.640;2022-10-15T14:18:36;16.10;72.60
71668;DHT22;59504;54.806;9.640;2022-10-15T14:20:57;16.10;72.10
71668;DHT22;59504;54.806;9.640;2022-10-15T14:23:21;16.10;72.20
71668;DHT22;59504;54.806;9.640;2022-10-15T14:25:24;16.10;72.10
71668;DHT22;59504;54.806;9.640;2022-10-15T14:27:26;16.10;72.30
71668;DHT22;59504;54.806;9.640;2022-10-15T14:29:46;16.10;72.30
71668;DHT22;59504;54.806;9.640;2022-10-15T14:31:48;16.10;72.10
71668;DHT22;59504;54.806;9.640;2022-10-15T14:33:48;16.10;72.90
71668;DHT22;59504;54.806;9.640;2022-10-15T14:38:19;16.10;72.30
71668;DHT22;59504;54.806;9.640;2022-10-15T14:43:04;16.10;71.20
71668;DHT22;59504;54.806;9.640;2022-10-15T14:45:19;16.00;71.20
71668;DHT22;59504;54.806;9.640;2022-10-15T14:47:25;16.10;71.10
71668;DHT22;59504;54.806;9.640;2022-10-15T14:49:32;16.00;71.10
71668;DHT22;59504;54.806;9.640;2022-10-15T14:51:33;16.10;71.20
71668;DHT22;59504;54.806;9.640;2022-10-15T14:53:36;16.10;71.00
71668;DHT22;59504;54.806;9.640;2022-10-15T14:55:42;16.00;70.80
71668;DHT22;59504;54.806;9.640;2022-10-15T14:57:43;16.10;70.80
71668;DHT22;59504;54.806;9.640;2022-10-15T14:59:45;16.00;70.80
71668;DHT22;59504;54.806;9.640;2022-10-15T15:01:58;16.00;70.90
71668;DHT22;59504;54.806;9.640;2022-10-15T15:04:35;16.00;70.70
71668;DHT22;59504;54.806;9.640;2022-10-15T15:06:39;16.00;70.70
71668;DHT22;59504;54.806;9.640;2022-10-15T15:08:40;15.90;70.90
71668;DHT22;59504;54.806;9.640;2022-10-15T15:10:42;16.00;71.00
71668;DHT22;59504;54.806;9.640;2022-10-15T15:12:48;15.90;70.90
71668;DHT22;59504;54.806;9.640;2022-10-15T15:14:50;15.90;71.00
71668;DHT22;59504;54.806;9.640;2022-10-15T15:16:51;15.90;71.00
71668;DHT22;59504;54.806;9.640;2022-10-15T15:18:52;15.80;71.00
71668;DHT22;59504;54.806;9.640;2022-10-15T15:20:55;15.90;71.10
71668;DHT22;59504;54.806;9.640;2022-10-15T15:22:57;15.90;71.30
71668;DHT22;59504;54.806;9.640;2022-10-15T15:25:06;15.90;71.30
71668;DHT22;59504;54.806;9.640;2022-10-15T15:27:20;15.90;71.30
71668;DHT22;59504;54.806;9.640;2022-10-15T15:29:21;15.80;71.30
71668;DHT22;59504;54.806;9.640;2022-10-15T15:31:22;15.80;71.40
71668;DHT22;59504;54.806;9.640;2022-10-15T15:33:23;15.80;71.50
71668;DHT22;59504;54.806;9.640;2022-10-15T15:37:31;15.80;71.50
71668;DHT22;59504;54.806;9.640;2022-10-15T15:39:32;15.70;71.50
71668;DHT22;59504;54.806;9.640;2022-10-15T15:41:33;15.70;71.50
71668;DHT22;59504;54.806;9.640;2022-10-15T15:43:33;15.70;71.50
71668;DHT22;59504;54.806;9.640;2022-10-15T15:45:34;15.70;71.60
71668;DHT22;59504;54.806;9.640;2022-10-15T15:47:35;15.70;71.60